^^
Your Local Weather - Clay, NY Station Historical Data
Daily Summary for February 13, 2018 Units:  Metric    English   Both
« Previous Day
Next Day »
Daily Weekly Monthly Yearly Custom
  High: Low: Average:
Temperature: -2.6 °C -10.7 °C -5.4 °C
Dew Point: -9.8 °C -14.5 °C -12.1 °C
Humidity: 75% 48% 60%
Wind Speed: 6.4km/h 0km/h 2.3km/h
Wind Gust: 12.9km/h - -
Wind- - South
Pressure: 1044.2 hPa 1028 hPa -
Precipitation: 0 mm    
Historical Graphs
 
 
Tabular Data for February 13, 2018
Time Temperature Dew Point Pressure Wind Wind Speed Wind Gust Humidity Rainfall Rate (Hourly) solar
00:00 -5.6 °C -10.8 °C 1041.2 hPa NW 3.2 km/h 3.2 km/h 67% 0 mm 0 W/m2
00:06 -5.6 °C -10.9 °C 1041.2 hPa NNW 3.2 km/h 4.8 km/h 66% 0 mm 0 W/m2
00:12 -5.6 °C -10.9 °C 1041.2 hPa NNW 3.2 km/h 3.2 km/h 66% 0 mm 0 W/m2
00:18 -5.6 °C -10.9 °C 1041.5 hPa NW 3.2 km/h 3.2 km/h 66% 0 mm 0 W/m2
00:24 -5.6 °C -10.9 °C 1041.5 hPa NW 3.2 km/h 6.4 km/h 66% 0 mm 0 W/m2
00:30 -5.7 °C -11 °C 1041.5 hPa NW 3.2 km/h 6.4 km/h 66% 0 mm 0 W/m2
00:36 -5.7 °C -11 °C 1041.5 hPa NNW 3.2 km/h 6.4 km/h 66% 0 mm 0 W/m2
00:42 -5.7 °C -11.1 °C 1041.5 hPa NW 3.2 km/h 3.2 km/h 66% 0 mm 0 W/m2
00:48 -5.7 °C -11.3 °C 1041.5 hPa NNW 4.8 km/h 8 km/h 65% 0 mm 0 W/m2
00:54 -5.7 °C -11.3 °C 1041.5 hPa NW 4.8 km/h 8 km/h 65% 0 mm 0 W/m2
01:00 -5.8 °C -11.3 °C 1041.5 hPa North 3.2 km/h 3.2 km/h 65% 0 mm 0 W/m2
01:06 -5.8 °C -11.1 °C 1041.5 hPa NNW 3.2 km/h 4.8 km/h 66% 0 mm 0 W/m2
01:12 -5.8 °C -11.2 °C 1041.5 hPa NNW 3.2 km/h 9.7 km/h 66% 0 mm 0 W/m2
01:18 -5.9 °C -11.4 °C 1041.9 hPa NNW 4.8 km/h 9.7 km/h 65% 0 mm 0 W/m2
01:24 -5.9 °C -11.4 °C 1041.9 hPa NNW 4.8 km/h 4.8 km/h 65% 0 mm 0 W/m2
01:30 -5.9 °C -11.4 °C 1042.2 hPa NW 3.2 km/h 6.4 km/h 65% 0 mm 0 W/m2
01:36 -6 °C -11.5 °C 1042.2 hPa NW 4.8 km/h 6.4 km/h 65% 0 mm 0 W/m2
01:42 -6 °C -11.5 °C 1042.2 hPa NW 3.2 km/h 3.2 km/h 65% 0 mm 0 W/m2
01:48 -6.1 °C -11.4 °C 1042.2 hPa North 1.6 km/h 4.8 km/h 66% 0 mm 0 W/m2
01:54 -6.1 °C -11.4 °C 1042.2 hPa NNW 3.2 km/h 4.8 km/h 66% 0 mm 0 W/m2
02:00 -6.1 °C -11.4 °C 1042.2 hPa NW 4.8 km/h 4.8 km/h 66% 0 mm 0 W/m2
02:06 -6.2 °C -11.5 °C 1042.2 hPa NNW 3.2 km/h 8 km/h 66% 0 mm 0 W/m2
02:12 -6.2 °C -11.5 °C 1042.2 hPa NNW 3.2 km/h 3.2 km/h 66% 0 mm 0 W/m2
02:18 -6.2 °C -11.6 °C 1042.5 hPa NW 3.2 km/h 4.8 km/h 66% 0 mm 0 W/m2
02:24 -6.2 °C -11.6 °C 1042.2 hPa NNW 3.2 km/h 4.8 km/h 66% 0 mm 0 W/m2
02:30 -6.2 °C -11.6 °C 1042.2 hPa NNW 3.2 km/h 3.2 km/h 66% 0 mm 0 W/m2
02:36 -6.2 °C -11.6 °C 1042.5 hPa North 1.6 km/h 4.8 km/h 66% 0 mm 0 W/m2
02:42 -6.3 °C -11.6 °C 1042.2 hPa NNW 3.2 km/h 6.4 km/h 66% 0 mm 0 W/m2
02:48 -6.3 °C -11.6 °C 1042.5 hPa North 3.2 km/h 6.4 km/h 66% 0 mm 0 W/m2
02:54 -6.3 °C -11.7 °C 1042.5 hPa NNW 3.2 km/h 3.2 km/h 66% 0 mm 0 W/m2
03:00 -6.3 °C -11.7 °C 1042.5 hPa NW 3.2 km/h 4.8 km/h 66% 0 mm 0 W/m2
03:06 -6.3 °C -11.7 °C 1042.2 hPa NW 3.2 km/h 4.8 km/h 66% 0 mm 0 W/m2
03:12 -6.4 °C -11.7 °C 1042.5 hPa NNW 1.6 km/h 3.2 km/h 66% 0 mm 0 W/m2
03:18 -6.4 °C -11.7 °C 1042.5 hPa NW 3.2 km/h 4.8 km/h 66% 0 mm 0 W/m2
03:24 -6.3 °C -11.7 °C 1042.5 hPa NW 3.2 km/h 3.2 km/h 66% 0 mm 0 W/m2
03:30 -6.4 °C -11.6 °C 1042.5 hPa Calm   3.2 km/h 67% 0 mm 0 W/m2
03:36 -6.4 °C -11.6 °C 1042.5 hPa Calm   3.2 km/h 67% 0 mm 0 W/m2
03:46 -6.4 °C -11.6 °C 1042.5 hPa NW 1.6 km/h 3.2 km/h 67% 0 mm 0 W/m2
03:52 -6.4 °C -11.6 °C 1042.2 hPa NW 1.6 km/h 3.2 km/h 67% 0 mm 0 W/m2
03:58 -6.5 °C -11.6 °C 1042.2 hPa NW 1.6 km/h 3.2 km/h 67% 0 mm 0 W/m2
04:04 -6.5 °C -11.6 °C 1042.5 hPa NW 1.6 km/h 3.2 km/h 67% 0 mm 0 W/m2
04:10 -6.5 °C -11.6 °C 1042.9 hPa NW 1.6 km/h 1.6 km/h 67% 0 mm 0 W/m2
04:16 -6.5 °C -11.8 °C 1042.5 hPa NNW 3.2 km/h 3.2 km/h 66% 0 mm 0 W/m2
04:23 -6.5 °C -11.8 °C 1042.5 hPa NNW 3.2 km/h 4.8 km/h 66% 0 mm 0 W/m2
04:28 -6.6 °C -11.9 °C 1042.5 hPa NNW 1.6 km/h 6.4 km/h 66% 0 mm 0 W/m2
04:34 -6.6 °C -11.9 °C 1042.9 hPa NNW 3.2 km/h 4.8 km/h 66% 0 mm 0 W/m2
04:40 -6.6 °C -12.1 °C 1042.9 hPa NNW 3.2 km/h 4.8 km/h 65% 0 mm 0 W/m2
04:46 -6.6 °C -12.2 °C 1042.9 hPa NNW 3.2 km/h 4.8 km/h 64% 0 mm 0 W/m2
04:52 -6.6 °C -12.1 °C 1042.9 hPa NNW 1.6 km/h 1.6 km/h 65% 0 mm 0 W/m2
04:58 -6.7 °C -12.3 °C 1043.2 hPa NNW 1.6 km/h 4.8 km/h 64% 0 mm 0 W/m2
05:04 -6.7 °C -12.3 °C 1042.9 hPa NNW 1.6 km/h 4.8 km/h 64% 0 mm 0 W/m2
05:10 -6.7 °C -12.2 °C 1042.9 hPa NNW 1.6 km/h 1.6 km/h 65% 0 mm 0 W/m2
05:16 -6.8 °C -12.4 °C 1042.9 hPa NNW 1.6 km/h 1.6 km/h 64% 0 mm 0 W/m2
05:22 -6.8 °C -12.3 °C 1042.9 hPa NNW 1.6 km/h 1.6 km/h 65% 0 mm 0 W/m2
05:28 -6.9 °C -12.4 °C 1043.2 hPa Calm   1.6 km/h 65% 0 mm 0 W/m2
05:34 -7 °C -12.5 °C 1043.2 hPa Calm   4.8 km/h 65% 0 mm 0 W/m2
05:40 -7.1 °C -12.6 °C 1043.2 hPa Calm     65% 0 mm 0 W/m2
05:46 -7.1 °C -12.6 °C 1043.2 hPa NNW 1.6 km/h 3.2 km/h 65% 0 mm 0 W/m2
05:52 -7.2 °C -12.9 °C 1043.2 hPa NNW 1.6 km/h 1.6 km/h 64% 0 mm 0 W/m2
05:58 -7.3 °C -12.8 °C 1043.6 hPa Calm   1.6 km/h 65% 0 mm 0 W/m2
06:04 -7.4 °C -12.8 °C 1043.2 hPa Calm     65% 0 mm 0 W/m2
06:10 -7.4 °C -12.9 °C 1043.2 hPa Calm     65% 0 mm 0 W/m2
06:16 -7.6 °C -12.8 °C 1043.6 hPa Calm     66% 0 mm 0 W/m2
06:22 -7.7 °C -12.9 °C 1043.6 hPa Calm     66% 0 mm 0 W/m2
06:28 -7.8 °C -12.9 °C 1043.2 hPa Calm     67% 0 mm 0 W/m2
06:34 -7.9 °C -13 °C 1043.2 hPa Calm     67% 0 mm 0 W/m2
06:40 -8.1 °C -13 °C 1043.2 hPa Calm     68% 0 mm 0 W/m2
06:46 -8.3 °C -13.2 °C 1042.9 hPa Calm     68% 0 mm 0 W/m2
06:52 -8.7 °C -13.3 °C 1043.2 hPa Calm     69% 0 mm 0 W/m2
06:58 -9.1 °C -13.6 °C 1043.2 hPa Calm   1.6 km/h 70% 0 mm 0 W/m2
07:04 -9.3 °C -13.6 °C 1043.2 hPa NNW 1.6 km/h 4.8 km/h 71% 0 mm 5 W/m2
07:10 -9.4 °C -13.7 °C 1043.2 hPa NNW 1.6 km/h 1.6 km/h 71% 0 mm 7 W/m2
07:16 -9.7 °C -13.9 °C 1043.6 hPa Calm   1.6 km/h 71% 0 mm 9 W/m2
07:22 -9.8 °C -14.1 °C 1043.6 hPa Calm     71% 0 mm 12 W/m2
07:28 -10.1 °C -14.2 °C 1043.6 hPa Calm     72% 0 mm 14 W/m2
07:34 -10.3 °C -14.4 °C 1043.6 hPa Calm     72% 0 mm 16 W/m2
07:40 -10.4 °C -14.3 °C 1043.9 hPa Calm     73% 0 mm 19 W/m2
07:46 -10.6 °C -14.5 °C 1043.9 hPa Calm     73% 0 mm 25 W/m2
07:52 -10.7 °C -14.4 °C 1043.9 hPa Calm     74% 0 mm 35 W/m2
07:58 -10.7 °C -14.4 °C 1043.9 hPa Calm     74% 0 mm 35 W/m2
08:04 -10.7 °C -14.3 °C 1043.9 hPa Calm     75% 0 mm 67 W/m2
08:10 -10.6 °C -14.1 °C 1043.9 hPa Calm   3.2 km/h 75% 0 mm 86 W/m2
08:16 -10.2 °C -13.8 °C 1043.9 hPa Calm   3.2 km/h 75% 0 mm 121 W/m2
08:22 -9.7 °C -13.4 °C 1043.9 hPa Calm   3.2 km/h 74% 0 mm 193 W/m2
08:28 -8.9 °C -13.2 °C 1044.2 hPa East 1.6 km/h 4.8 km/h 71% 0 mm 213 W/m2
08:34 -8.4 °C -13.5 °C 1043.9 hPa ENE 1.6 km/h 4.8 km/h 67% 0 mm 190 W/m2
08:40 -8.3 °C -13.7 °C 1044.2 hPa East 3.2 km/h 8 km/h 65% 0 mm 272 W/m2
08:46 -8.1 °C -13.7 °C 1044.2 hPa East 3.2 km/h 8 km/h 64% 0 mm 276 W/m2
08:52 -7.9 °C -13.7 °C 1044.2 hPa East 3.2 km/h 3.2 km/h 63% 0 mm 295 W/m2
08:58 -7.6 °C -13.7 °C 1044.2 hPa East 1.6 km/h 4.8 km/h 62% 0 mm 271 W/m2
09:04 -7.7 °C -13.7 °C 1044.2 hPa East 3.2 km/h 4.8 km/h 62% 0 mm 236 W/m2
09:10 -7.4 °C -13.4 °C 1044.2 hPa SE 1.6 km/h 4.8 km/h 62% 0 mm 290 W/m2
09:16 -7.2 °C -13.6 °C 1044.2 hPa SE 3.2 km/h 4.8 km/h 60% 0 mm 315 W/m2
09:22 -7.2 °C -13.4 °C 1044.2 hPa SE 1.6 km/h 3.2 km/h 61% 0 mm 285 W/m2
09:28 -6.6 °C -13.3 °C 1044.2 hPa Calm   6.4 km/h 59% 0 mm 246 W/m2
09:34 -6.8 °C -13.3 °C 1044.2 hPa SE 1.6 km/h 4.8 km/h 60% 0 mm 213 W/m2
09:40 -6.8 °C -13.3 °C 1044.2 hPa SE 1.6 km/h 1.6 km/h 60% 0 mm 420 W/m2
09:46 -5.7 °C -12.6 °C 1044.2 hPa SE 1.6 km/h 1.6 km/h 58% 0 mm 432 W/m2
09:52 -5.4 °C -12.6 °C 1044.2 hPa Calm     57% 0 mm 392 W/m2
09:58 -4.9 °C -12.8 °C 1043.9 hPa Calm   3.2 km/h 54% 0 mm 475 W/m2
10:04 -5.6 °C -12.9 °C 1043.9 hPa Calm     56% 0 mm 408 W/m2
10:10 -5.6 °C -12.9 °C 1043.9 hPa SE 1.6 km/h 6.4 km/h 56% 0 mm 496 W/m2
10:16 -5.9 °C -13.1 °C 1043.9 hPa SE 3.2 km/h 6.4 km/h 57% 0 mm 429 W/m2
10:22 -4.6 °C -12.3 °C 1043.9 hPa SE 1.6 km/h 1.6 km/h 55% 0 mm 517 W/m2
10:28 -4.4 °C -12.4 °C 1043.6 hPa Calm   8 km/h 54% 0 mm 526 W/m2
10:34 -5.1 °C -12.8 °C 1043.6 hPa NNE 3.2 km/h 6.4 km/h 55% 0 mm 533 W/m2
10:40 -4.8 °C -12.3 °C 1043.6 hPa NE 1.6 km/h 1.6 km/h 56% 0 mm 552 W/m2
10:46 -4.2 °C -11.9 °C 1043.2 hPa NE 1.6 km/h 1.6 km/h 55% 0 mm 561 W/m2
10:52 -3.3 °C -11.6 °C 1043.2 hPa Calm   1.6 km/h 53% 0 mm 568 W/m2
10:58 -3.3 °C -12 °C 1043.2 hPa Calm   1.6 km/h 51% 0 mm 589 W/m2
11:04 -3.9 °C -12.3 °C 1043.2 hPa Calm   3.2 km/h 52% 0 mm 596 W/m2
11:10 -3.5 °C -12.2 °C 1043.2 hPa NW 1.6 km/h 1.6 km/h 51% 0 mm 610 W/m2
11:16 -3.5 °C -12.4 °C 1042.9 hPa NW 1.6 km/h 1.6 km/h 50% 0 mm 596 W/m2
11:22 -4.1 °C -12.8 °C 1042.9 hPa Calm   3.2 km/h 51% 0 mm 496 W/m2
11:28 -3.8 °C -12.5 °C 1042.9 hPa Calm   4.8 km/h 51% 0 mm 529 W/m2
11:34 -3.7 °C -12.1 °C 1042.5 hPa NW 1.6 km/h 3.2 km/h 52% 0 mm 548 W/m2
11:40 -4.1 °C -12.5 °C 1042.5 hPa NW 1.6 km/h 4.8 km/h 52% 0 mm 547 W/m2
11:46 -4.4 °C -12.6 °C 1042.2 hPa SW 3.2 km/h 6.4 km/h 53% 0 mm 561 W/m2
11:52 -3.6 °C -12.6 °C 1042.2 hPa SW 3.2 km/h 3.2 km/h 50% 0 mm 526 W/m2
11:58 -3.9 °C -12.6 °C 1042.2 hPa ESE 1.6 km/h 4.8 km/h 51% 0 mm 504 W/m2
12:04 -4.1 °C -12.5 °C 1041.9 hPa SE 3.2 km/h 3.2 km/h 52% 0 mm 480 W/m2
12:10 -4.2 °C -12.3 °C 1041.9 hPa South 3.2 km/h 6.4 km/h 53% 0 mm 424 W/m2
12:16 -4.3 °C -12.7 °C 1041.9 hPa South 4.8 km/h 6.4 km/h 52% 0 mm 394 W/m2
12:22 -3.8 °C -12.4 °C 1041.5 hPa South 1.6 km/h 3.2 km/h 51% 0 mm 536 W/m2
12:28 -3.8 °C -12.7 °C 1041.2 hPa SSW 3.2 km/h 4.8 km/h 50% 0 mm 547 W/m2
12:34 -4.1 °C -12.7 °C 1041.2 hPa SSE 4.8 km/h 4.8 km/h 51% 0 mm 533 W/m2
12:40 -3.4 °C -12.6 °C 1041.2 hPa SSE 1.6 km/h 1.6 km/h 49% 0 mm 490 W/m2
12:46 -3.1 °C -12.3 °C 1040.9 hPa SSW 1.6 km/h 4.8 km/h 49% 0 mm 403 W/m2
12:52 -3.8 °C -12.8 °C 1040.9 hPa East 3.2 km/h 4.8 km/h 50% 0 mm 369 W/m2
12:58 -3.6 °C -12.3 °C 1040.9 hPa ESE 1.6 km/h 4.8 km/h 51% 0 mm 527 W/m2
13:04 -3.6 °C -12.5 °C 1040.5 hPa SSE 3.2 km/h 11.3 km/h 50% 0 mm 411 W/m2
13:10 -3.5 °C -12.4 °C 1040.5 hPa SW 4.8 km/h 4.8 km/h 50% 0 mm 350 W/m2
13:16 -3.5 °C -12.7 °C 1040.2 hPa SW 1.6 km/h 4.8 km/h 49% 0 mm 445 W/m2
13:22 -3.3 °C -12 °C 1040.2 hPa SW 1.6 km/h 1.6 km/h 51% 0 mm 427 W/m2
13:28 -3.6 °C -12.5 °C 1040.2 hPa South 1.6 km/h 6.4 km/h 50% 0 mm 385 W/m2
13:34 -3.6 °C -12.2 °C 1040.2 hPa SE 3.2 km/h 6.4 km/h 51% 0 mm 392 W/m2
13:40 -3.5 °C -11.9 °C 1039.8 hPa SE 3.2 km/h 6.4 km/h 52% 0 mm 366 W/m2
13:46 -3.4 °C -12.2 °C 1039.5 hPa SE 3.2 km/h 6.4 km/h 51% 0 mm 330 W/m2
13:52 -2.6 °C -11.6 °C 1039.5 hPa SE 1.6 km/h 1.6 km/h 50% 0 mm 327 W/m2
13:58 -3 °C -11.7 °C 1039.5 hPa ESE 1.6 km/h 3.2 km/h 51% 0 mm 394 W/m2
14:04 -3.2 °C -11.7 °C 1039.2 hPa East 3.2 km/h 6.4 km/h 52% 0 mm 411 W/m2
14:10 -3.4 °C -11.8 °C 1039.2 hPa NE 6.4 km/h 6.4 km/h 52% 0 mm 404 W/m2
14:16 -3.2 °C -11.4 °C 1038.8 hPa NE 4.8 km/h 8 km/h 53% 0 mm 411 W/m2
14:22 -3.3 °C -11.5 °C 1038.5 hPa ENE 4.8 km/h 6.4 km/h 53% 0 mm 429 W/m2
14:28 -3.3 °C -11.3 °C 1038.5 hPa NNE 4.8 km/h 6.4 km/h 54% 0 mm 330 W/m2
14:34 -3.5 °C -11.9 °C 1038.5 hPa East 4.8 km/h 11.3 km/h 52% 0 mm 359 W/m2
14:40 -3.6 °C -11.8 °C 1038.1 hPa North 4.8 km/h 4.8 km/h 53% 0 mm 309 W/m2
14:46 -3.6 °C -11.8 °C 1038.1 hPa East 4.8 km/h 8 km/h 53% 0 mm 227 W/m2
14:52 -3.6 °C -11.8 °C 1038.1 hPa East 4.8 km/h 8 km/h 53% 0 mm 299 W/m2
14:58 -3.7 °C -11.9 °C 1038.1 hPa ENE 4.8 km/h 8 km/h 53% 0 mm 373 W/m2
15:04 -3.4 °C -11.9 °C 1037.8 hPa ENE 4.8 km/h 6.4 km/h 52% 0 mm 325 W/m2
15:10 -3.5 °C -11.5 °C 1037.8 hPa NE 4.8 km/h 4.8 km/h 54% 0 mm 320 W/m2
15:16 -3.4 °C -11.8 °C 1037.8 hPa NE 4.8 km/h 6.4 km/h 52% 0 mm 285 W/m2
15:22 -3.4 °C -11.9 °C 1037.8 hPa NNE 6.4 km/h 9.7 km/h 52% 0 mm 285 W/m2
15:28 -3.3 °C -12.1 °C 1037.5 hPa ENE 4.8 km/h 12.9 km/h 51% 0 mm 265 W/m2
15:34 -3.6 °C -12.2 °C 1037.5 hPa NW 4.8 km/h 4.8 km/h 51% 0 mm 257 W/m2
15:40 -3.6 °C -12.1 °C 1037.5 hPa NNE 4.8 km/h 4.8 km/h 52% 0 mm 230 W/m2
15:46 -3.5 °C -11.9 °C 1037.5 hPa NNW 4.8 km/h 4.8 km/h 52% 0 mm 209 W/m2
15:52 -3.6 °C -12.2 °C 1037.1 hPa ENE 3.2 km/h 3.2 km/h 51% 0 mm 172 W/m2
15:58 -3.6 °C -12.2 °C 1037.1 hPa NNE 4.8 km/h 8 km/h 51% 0 mm 183 W/m2
16:04 -3.4 °C -11.8 °C 1037.1 hPa NE 4.8 km/h 8 km/h 52% 0 mm 192 W/m2
16:10 -3.6 °C -12.7 °C 1036.8 hPa ENE 4.8 km/h 4.8 km/h 49% 0 mm 218 W/m2
16:16 -3.5 °C -12.4 °C 1036.8 hPa ENE 4.8 km/h 4.8 km/h 50% 0 mm 111 W/m2
16:22 -3.4 °C -12.3 °C 1036.5 hPa ENE 3.2 km/h 3.2 km/h 50% 0 mm 91 W/m2
16:28 -3.4 °C -12.8 °C 1036.5 hPa ESE 4.8 km/h 9.7 km/h 48% 0 mm 81 W/m2
16:34 -3.4 °C -12.7 °C 1036.5 hPa ENE 6.4 km/h 8 km/h 49% 0 mm 72 W/m2
16:40 -3.4 °C -12.3 °C 1036.1 hPa East 4.8 km/h 4.8 km/h 50% 0 mm 65 W/m2
16:46 -3.4 °C -12.4 °C 1035.8 hPa East 4.8 km/h 9.7 km/h 50% 0 mm 56 W/m2
16:52 -3.5 °C -12.4 °C 1035.8 hPa East 4.8 km/h 6.4 km/h 50% 0 mm 49 W/m2
16:58 -3.5 °C -12.2 °C 1035.4 hPa ENE 3.2 km/h 6.4 km/h 51% 0 mm 42 W/m2
17:04 -3.5 °C -12.2 °C 1035.4 hPa ENE 3.2 km/h 8 km/h 51% 0 mm 35 W/m2
17:10 -3.5 °C -12.2 °C 1035.4 hPa SE 3.2 km/h 3.2 km/h 51% 0 mm 25 W/m2
17:16 -3.6 °C -12.3 °C 1035.4 hPa ENE 3.2 km/h 4.8 km/h 51% 0 mm 16 W/m2
17:22 -3.7 °C -12.3 °C 1035.4 hPa ENE 3.2 km/h 3.2 km/h 51% 0 mm 7 W/m2
17:28 -3.7 °C -12.7 °C 1035.1 hPa ENE 3.2 km/h 4.8 km/h 50% 0 mm 0 W/m2
17:34 -3.7 °C -12.4 °C 1035.4 hPa ENE 3.2 km/h 4.8 km/h 51% 0 mm 0 W/m2
17:40 -3.8 °C -12.4 °C 1035.4 hPa ENE 1.6 km/h 1.6 km/h 51% 0 mm 0 W/m2
17:46 -3.9 °C -12.6 °C 1035.1 hPa ENE 1.6 km/h 1.6 km/h 51% 0 mm 0 W/m2
17:52 -4.1 °C -12.5 °C 1035.1 hPa ENE 1.6 km/h 1.6 km/h 52% 0 mm 0 W/m2
17:58 -4.3 °C -12.5 °C 1035.1 hPa Calm   1.6 km/h 53% 0 mm 0 W/m2
18:04 -4.4 °C -12.6 °C 1034.8 hPa ENE 1.6 km/h 1.6 km/h 53% 0 mm 0 W/m2
18:10 -4.3 °C -12.3 °C 1034.4 hPa ENE 1.6 km/h 8 km/h 54% 0 mm 0 W/m2
18:16 -4.3 °C -12.2 °C 1034.4 hPa ENE 1.6 km/h 8 km/h 54% 0 mm 0 W/m2
18:22 -4 °C -12.2 °C 1034.4 hPa ENE 3.2 km/h 3.2 km/h 53% 0 mm 0 W/m2
18:28 -3.9 °C -12.1 °C 1034.1 hPa East 4.8 km/h 4.8 km/h 53% 0 mm 0 W/m2
18:34 -3.9 °C -11.9 °C 1034.1 hPa ENE 3.2 km/h 3.2 km/h 54% 0 mm 0 W/m2
18:40 -3.9 °C -12.1 °C 1033.7 hPa ENE 3.2 km/h 6.4 km/h 53% 0 mm 0 W/m2
18:46 -3.8 °C -12.1 °C 1034.1 hPa East 4.8 km/h 8 km/h 53% 0 mm 0 W/m2
18:52 -3.9 °C -11.8 °C 1034.1 hPa ENE 3.2 km/h 4.8 km/h 54% 0 mm 0 W/m2
18:58 -4 °C -11.9 °C 1033.7 hPa ESE 1.6 km/h 4.8 km/h 54% 0 mm 0 W/m2
19:04 -4 °C -11.7 °C 1033.7 hPa ENE 3.2 km/h 3.2 km/h 55% 0 mm 0 W/m2
19:10 -4.1 °C -11.8 °C 1033.4 hPa East 1.6 km/h 1.6 km/h 55% 0 mm 0 W/m2
19:16 -4.1 °C -11.6 °C 1033.4 hPa ENE 1.6 km/h 3.2 km/h 56% 0 mm 0 W/m2
19:22 -4.1 °C -11.6 °C 1033.4 hPa ENE 1.6 km/h 3.2 km/h 56% 0 mm 0 W/m2
19:28 -4.1 °C -11.6 °C 1033.4 hPa SE 3.2 km/h 3.2 km/h 56% 0 mm 0 W/m2
19:34 -4 °C -11.3 °C 1033.1 hPa East 1.6 km/h 4.8 km/h 57% 0 mm 0 W/m2
19:40 -4.1 °C -11.6 °C 1032.7 hPa SE 1.6 km/h 3.2 km/h 56% 0 mm 0 W/m2
19:46 -4.1 °C -11.3 °C 1032.7 hPa ESE 1.6 km/h 4.8 km/h 57% 0 mm 0 W/m2
19:52 -4.2 °C -11.4 °C 1032.7 hPa East 1.6 km/h 1.6 km/h 57% 0 mm 0 W/m2
19:58 -4.2 °C -11.4 °C 1032.7 hPa East 1.6 km/h 4.8 km/h 57% 0 mm 0 W/m2
20:04 -4.3 °C -11.6 °C 1032.4 hPa Calm   1.6 km/h 57% 0 mm 0 W/m2
20:10 -4.4 °C -11.5 °C 1032.4 hPa Calm     58% 0 mm 0 W/m2
20:16 -4.4 °C -11.5 °C 1032.4 hPa Calm   3.2 km/h 58% 0 mm 0 W/m2
20:22 -4.4 °C -11.3 °C 1032.4 hPa Calm   3.2 km/h 59% 0 mm 0 W/m2
20:28 -4.5 °C -11.1 °C 1032.4 hPa Calm   3.2 km/h 60% 0 mm 0 W/m2
20:34 -4.6 °C -11.2 °C 1032.1 hPa East 1.6 km/h 1.6 km/h 60% 0 mm 0 W/m2
20:40 -4.7 °C -11.3 °C 1031.7 hPa ENE 1.6 km/h 1.6 km/h 60% 0 mm 0 W/m2
20:46 -4.7 °C -11.1 °C 1031.7 hPa East 1.6 km/h 3.2 km/h 61% 0 mm 0 W/m2
20:52 -4.8 °C -11.2 °C 1031.7 hPa NE 1.6 km/h 3.2 km/h 61% 0 mm 0 W/m2
20:58 -4.8 °C -11.2 °C 1031.7 hPa ENE 1.6 km/h 3.2 km/h 61% 0 mm 0 W/m2
21:04 -4.8 °C -11.2 °C 1031.4 hPa East 1.6 km/h 4.8 km/h 61% 0 mm 0 W/m2
21:10 -4.7 °C -11.1 °C 1031.4 hPa SE 1.6 km/h 1.6 km/h 61% 0 mm 0 W/m2
21:16 -4.9 °C -11.1 °C 1031.4 hPa East 1.6 km/h 4.8 km/h 62% 0 mm 0 W/m2
21:22 -5.2 °C -11.2 °C 1031 hPa East 1.6 km/h 1.6 km/h 63% 0 mm 0 W/m2
21:28 -5.4 °C -11.2 °C 1030.7 hPa Calm   1.6 km/h 64% 0 mm 0 W/m2
21:34 -5.4 °C -11 °C 1030.7 hPa Calm   3.2 km/h 65% 0 mm 0 W/m2
21:40 -5.3 °C -10.9 °C 1030.4 hPa East 1.6 km/h 1.6 km/h 65% 0 mm 0 W/m2
21:46 -5.1 °C -10.9 °C 1030.4 hPa ENE 3.2 km/h 11.3 km/h 64% 0 mm 0 W/m2
21:52 -5 °C -10.8 °C 1030.4 hPa ENE 1.6 km/h 1.6 km/h 64% 0 mm 0 W/m2
21:58 -5.1 °C -10.6 °C 1030 hPa ENE 1.6 km/h 1.6 km/h 65% 0 mm 0 W/m2
22:04 -5 °C -10.6 °C 1030.4 hPa ENE 1.6 km/h 1.6 km/h 65% 0 mm 0 W/m2
22:10 -4.9 °C -10.5 °C 1030 hPa East 1.6 km/h 3.2 km/h 65% 0 mm 0 W/m2
22:16 -4.9 °C -10.4 °C 1030 hPa ENE 3.2 km/h 3.2 km/h 65% 0 mm 0 W/m2
22:22 -4.9 °C -10.4 °C 1030 hPa ENE 3.2 km/h 4.8 km/h 65% 0 mm 0 W/m2
22:28 -4.8 °C -10.4 °C 1030 hPa ENE 1.6 km/h 4.8 km/h 65% 0 mm 0 W/m2
22:34 -4.7 °C -10.5 °C 1030 hPa ENE 1.6 km/h 3.2 km/h 64% 0 mm 0 W/m2
22:40 -4.7 °C -10.3 °C 1029.7 hPa ENE 1.6 km/h 1.6 km/h 65% 0 mm 0 W/m2
22:46 -4.7 °C -10.5 °C 1029.7 hPa Calm   3.2 km/h 64% 0 mm 0 W/m2
22:52 -4.8 °C -10.3 °C 1029.7 hPa ENE 1.6 km/h 1.6 km/h 65% 0 mm 0 W/m2
22:58 -4.9 °C -10.3 °C 1029.7 hPa Calm   1.6 km/h 66% 0 mm 0 W/m2
23:04 -4.8 °C -10.2 °C 1029.7 hPa ENE 1.6 km/h 3.2 km/h 66% 0 mm 0 W/m2
23:10 -4.9 °C -10.1 °C 1029.3 hPa ENE 1.6 km/h 1.6 km/h 67% 0 mm 0 W/m2
23:16 -5.1 °C -10.1 °C 1029.3 hPa ENE 1.6 km/h 1.6 km/h 68% 0 mm 0 W/m2
23:22 -5.1 °C -9.9 °C 1029 hPa Calm   1.6 km/h 69% 0 mm 0 W/m2
23:28 -5 °C -9.8 °C 1028.7 hPa Calm   1.6 km/h 69% 0 mm 0 W/m2
23:34 -5.1 °C -9.9 °C 1028.7 hPa Calm     69% 0 mm 0 W/m2
23:40 -5.2 °C -9.9 °C 1028.7 hPa ENE 1.6 km/h 1.6 km/h 69% 0 mm 0 W/m2
23:46 -5.3 °C -10.1 °C 1028 hPa ENE 1.6 km/h 1.6 km/h 69% 0 mm 0 W/m2
23:52 -5.4 °C -10.4 °C 1028 hPa Calm   1.6 km/h 68% 0 mm 0 W/m2
23:58 -5.4 °C -10.2 °C 1028 hPa NE 1.6 km/h 4.8 km/h 69% 0 mm 0 W/m2
Country Meadow, Clay, NY, USA
Compliments of Weather Underground - 2 mb